sensor_id;sensor_type;location;lat;lon;timestamp;temperature;humidity
55313;DHT22;46892;45.668;11.756;2023-04-29T00:01:52;12.20;80.40
55313;DHT22;46892;45.668;11.756;2023-04-29T00:04:22;12.30;80.10
55313;DHT22;46892;45.668;11.756;2023-04-29T00:06:48;12.30;79.60
55313;DHT22;46892;45.668;11.756;2023-04-29T00:09:14;12.30;79.50
55313;DHT22;46892;45.668;11.756;2023-04-29T00:11:40;12.10;79.90
55313;DHT22;46892;45.668;11.756;2023-04-29T00:14:05;12.00;79.90
55313;DHT22;46892;45.668;11.756;2023-04-29T00:16:31;11.80;80.30
55313;DHT22;46892;45.668;11.756;2023-04-29T00:18:57;11.90;80.90
55313;DHT22;46892;45.668;11.756;2023-04-29T00:21:24;12.00;80.30
55313;DHT22;46892;45.668;11.756;2023-04-29T00:23:52;12.00;80.50
55313;DHT22;46892;45.668;11.756;2023-04-29T00:26:17;12.20;80.20
55313;DHT22;46892;45.668;11.756;2023-04-29T00:28:43;12.20;80.50
55313;DHT22;46892;45.668;11.756;2023-04-29T00:31:09;12.30;79.30
55313;DHT22;46892;45.668;11.756;2023-04-29T00:33:35;12.50;77.10
55313;DHT22;46892;45.668;11.756;2023-04-29T00:36:01;12.50;76.60
55313;DHT22;46892;45.668;11.756;2023-04-29T00:38:27;12.40;76.70
55313;DHT22;46892;45.668;11.756;2023-04-29T00:40:53;12.30;76.70
55313;DHT22;46892;45.668;11.756;2023-04-29T00:43:20;12.30;76.60
55313;DHT22;46892;45.668;11.756;2023-04-29T00:45:45;12.30;76.60
55313;DHT22;46892;45.668;11.756;2023-04-29T00:48:11;12.40;76.90
55313;DHT22;46892;45.668;11.756;2023-04-29T00:50:40;12.40;77.10
55313;DHT22;46892;45.668;11.756;2023-04-29T00:53:07;12.50;77.20
55313;DHT22;46892;45.668;11.756;2023-04-29T00:55:33;12.40;77.60
55313;DHT22;46892;45.668;11.756;2023-04-29T00:58:00;12.40;76.80
55313;DHT22;46892;45.668;11.756;2023-04-29T01:00:27;12.30;77.40
55313;DHT22;46892;45.668;11.756;2023-04-29T01:02:53;12.30;77.20
55313;DHT22;46892;45.668;11.756;2023-04-29T01:05:24;12.30;76.80
55313;DHT22;46892;45.668;11.756;2023-04-29T01:11:04;12.30;76.60
55313;DHT22;46892;45.668;11.756;2023-04-29T01:16:37;12.40;76.60
55313;DHT22;46892;45.668;11.756;2023-04-29T01:19:15;12.60;75.70
55313;DHT22;46892;45.668;11.756;2023-04-29T01:21:47;12.70;76.60
55313;DHT22;46892;45.668;11.756;2023-04-29T01:24:16;12.60;76.90
55313;DHT22;46892;45.668;11.756;2023-04-29T01:26:45;12.60;77.30
55313;DHT22;46892;45.668;11.756;2023-04-29T01:29:34;12.60;77.70
55313;DHT22;46892;45.668;11.756;2023-04-29T01:32:05;12.60;76.70
55313;DHT22;46892;45.668;11.756;2023-04-29T01:37:55;12.80;75.10
55313;DHT22;46892;45.668;11.756;2023-04-29T01:40:25;12.80;75.20
55313;DHT22;46892;45.668;11.756;2023-04-29T01:43:01;12.80;77.30
55313;DHT22;46892;45.668;11.756;2023-04-29T01:45:28;12.80;76.40
55313;DHT22;46892;45.668;11.756;2023-04-29T01:47:56;12.80;77.70
55313;DHT22;46892;45.668;11.756;2023-04-29T01:50:22;12.80;77.00
55313;DHT22;46892;45.668;11.756;2023-04-29T01:52:47;12.80;76.80
55313;DHT22;46892;45.668;11.756;2023-04-29T01:55:13;12.90;76.10
55313;DHT22;46892;45.668;11.756;2023-04-29T01:57:39;12.80;76.40
55313;DHT22;46892;45.668;11.756;2023-04-29T02:00:05;12.80;75.70
55313;DHT22;46892;45.668;11.756;2023-04-29T02:02:31;12.60;76.40
55313;DHT22;46892;45.668;11.756;2023-04-29T02:04:57;12.70;77.40
55313;DHT22;46892;45.668;11.756;2023-04-29T02:07:22;12.50;77.30
55313;DHT22;46892;45.668;11.756;2023-04-29T02:09:48;12.50;77.60
55313;DHT22;46892;45.668;11.756;2023-04-29T02:12:14;12.70;77.80
55313;DHT22;46892;45.668;11.756;2023-04-29T02:14:39;12.80;78.00
55313;DHT22;46892;45.668;11.756;2023-04-29T02:17:05;12.80;77.90
55313;DHT22;46892;45.668;11.756;2023-04-29T02:19:31;12.80;77.40
55313;DHT22;46892;45.668;11.756;2023-04-29T02:21:56;12.80;78.40
55313;DHT22;46892;45.668;11.756;2023-04-29T02:24:22;12.80;78.70
55313;DHT22;46892;45.668;11.756;2023-04-29T02:26:48;13.00;78.90
55313;DHT22;46892;45.668;11.756;2023-04-29T02:29:13;12.90;78.60
55313;DHT22;46892;45.668;11.756;2023-04-29T02:31:39;12.80;79.70
55313;DHT22;46892;45.668;11.756;2023-04-29T02:34:05;12.70;79.40
55313;DHT22;46892;45.668;11.756;2023-04-29T02:36:30;12.50;79.50
55313;DHT22;46892;45.668;11.756;2023-04-29T02:38:56;12.30;79.80
55313;DHT22;46892;45.668;11.756;2023-04-29T02:41:22;12.20;79.80
55313;DHT22;46892;45.668;11.756;2023-04-29T02:43:50;12.10;80.20
55313;DHT22;46892;45.668;11.756;2023-04-29T02:46:16;12.20;80.10
55313;DHT22;46892;45.668;11.756;2023-04-29T02:48:43;12.30;80.20
55313;DHT22;46892;45.668;11.756;2023-04-29T02:51:09;12.30;79.70
55313;DHT22;46892;45.668;11.756;2023-04-29T02:53:35;12.20;79.90
55313;DHT22;46892;45.668;11.756;2023-04-29T02:56:00;12.20;80.40
55313;DHT22;46892;45.668;11.756;2023-04-29T02:58:26;12.30;80.30
55313;DHT22;46892;45.668;11.756;2023-04-29T03:00:52;12.30;80.30
55313;DHT22;46892;45.668;11.756;2023-04-29T03:03:17;12.30;80.50
55313;DHT22;46892;45.668;11.756;2023-04-29T03:05:43;12.40;80.20
55313;DHT22;46892;45.668;11.756;2023-04-29T03:08:10;12.50;79.90
55313;DHT22;46892;45.668;11.756;2023-04-29T03:10:35;12.50;79.90
55313;DHT22;46892;45.668;11.756;2023-04-29T03:13:01;12.50;80.50
55313;DHT22;46892;45.668;11.756;2023-04-29T03:15:27;12.50;80.80
55313;DHT22;46892;45.668;11.756;2023-04-29T03:17:53;12.50;80.70
55313;DHT22;46892;45.668;11.756;2023-04-29T03:20:18;12.50;80.60
55313;DHT22;46892;45.668;11.756;2023-04-29T03:22:44;12.50;80.30
55313;DHT22;46892;45.668;11.756;2023-04-29T03:25:10;12.50;80.80
55313;DHT22;46892;45.668;11.756;2023-04-29T03:27:36;12.30;81.30
55313;DHT22;46892;45.668;11.756;2023-04-29T03:30:03;12.40;81.20
55313;DHT22;46892;45.668;11.756;2023-04-29T03:32:28;12.40;80.90
55313;DHT22;46892;45.668;11.756;2023-04-29T03:34:54;12.30;81.60
55313;DHT22;46892;45.668;11.756;2023-04-29T03:37:20;12.30;80.90
55313;DHT22;46892;45.668;11.756;2023-04-29T03:39:45;12.20;81.20
55313;DHT22;46892;45.668;11.756;2023-04-29T03:42:11;12.30;80.90
55313;DHT22;46892;45.668;11.756;2023-04-29T03:44:37;12.40;80.50
55313;DHT22;46892;45.668;11.756;2023-04-29T03:47:03;12.40;80.20
55313;DHT22;46892;45.668;11.756;2023-04-29T03:49:28;12.50;79.80
55313;DHT22;46892;45.668;11.756;2023-04-29T03:51:54;12.50;80.00
55313;DHT22;46892;45.668;11.756;2023-04-29T03:54:20;12.60;79.50
55313;DHT22;46892;45.668;11.756;2023-04-29T03:56:46;12.70;78.90
55313;DHT22;46892;45.668;11.756;2023-04-29T03:59:11;12.70;78.80
55313;DHT22;46892;45.668;11.756;2023-04-29T04:01:37;12.70;80.40
55313;DHT22;46892;45.668;11.756;2023-04-29T04:04:02;12.70;81.20
55313;DHT22;46892;45.668;11.756;2023-04-29T04:06:28;12.70;81.10
55313;DHT22;46892;45.668;11.756;2023-04-29T04:08:54;12.80;80.70
55313;DHT22;46892;45.668;11.756;2023-04-29T04:11:19;12.80;80.40
55313;DHT22;46892;45.668;11.756;2023-04-29T04:13:45;12.80;80.00
55313;DHT22;46892;45.668;11.756;2023-04-29T04:16:11;12.80;80.10
55313;DHT22;46892;45.668;11.756;2023-04-29T04:18:37;12.70;80.70
55313;DHT22;46892;45.668;11.756;2023-04-29T04:21:09;12.60;81.10
55313;DHT22;46892;45.668;11.756;2023-04-29T04:23:36;12.50;81.30
55313;DHT22;46892;45.668;11.756;2023-04-29T04:26:04;12.50;81.70
55313;DHT22;46892;45.668;11.756;2023-04-29T04:28:30;12.60;81.60
55313;DHT22;46892;45.668;11.756;2023-04-29T04:30:56;12.60;81.60
55313;DHT22;46892;45.668;11.756;2023-04-29T04:33:21;12.80;81.70
55313;DHT22;46892;45.668;11.756;2023-04-29T04:35:47;12.80;81.40
55313;DHT22;46892;45.668;11.756;2023-04-29T04:38:13;12.70;81.10
55313;DHT22;46892;45.668;11.756;2023-04-29T04:40:43;12.50;81.20
55313;DHT22;46892;45.668;11.756;2023-04-29T04:43:08;12.50;81.60
55313;DHT22;46892;45.668;11.756;2023-04-29T04:45:34;12.50;81.10
55313;DHT22;46892;45.668;11.756;2023-04-29T04:48:01;12.60;81.50
55313;DHT22;46892;45.668;11.756;2023-04-29T04:50:27;12.60;81.30
55313;DHT22;46892;45.668;11.756;2023-04-29T04:52:54;12.60;81.80
55313;DHT22;46892;45.668;11.756;2023-04-29T04:55:21;12.60;81.90
55313;DHT22;46892;45.668;11.756;2023-04-29T04:57:46;12.70;81.40
55313;DHT22;46892;45.668;11.756;2023-04-29T05:00:12;12.80;81.30
55313;DHT22;46892;45.668;11.756;2023-04-29T05:02:38;12.70;81.00
55313;DHT22;46892;45.668;11.756;2023-04-29T05:05:04;12.60;81.60
55313;DHT22;46892;45.668;11.756;2023-04-29T05:07:30;12.50;81.60
55313;DHT22;46892;45.668;11.756;2023-04-29T05:09:56;12.40;81.70
55313;DHT22;46892;45.668;11.756;2023-04-29T05:12:22;12.30;81.90
55313;DHT22;46892;45.668;11.756;2023-04-29T05:14:52;12.30;82.60
55313;DHT22;46892;45.668;11.756;2023-04-29T05:17:17;12.30;83.30
55313;DHT22;46892;45.668;11.756;2023-04-29T05:19:43;12.20;83.40
55313;DHT22;46892;45.668;11.756;2023-04-29T05:22:09;12.30;83.40
55313;DHT22;46892;45.668;11.756;2023-04-29T05:24:34;12.30;83.30
55313;DHT22;46892;45.668;11.756;2023-04-29T05:27:00;12.30;83.50
55313;DHT22;46892;45.668;11.756;2023-04-29T05:29:26;12.30;83.60
55313;DHT22;46892;45.668;11.756;2023-04-29T05:31:52;12.40;83.70
55313;DHT22;46892;45.668;11.756;2023-04-29T05:34:18;12.50;83.80
55313;DHT22;46892;45.668;11.756;2023-04-29T05:36:43;12.50;83.80
55313;DHT22;46892;45.668;11.756;2023-04-29T05:39:09;12.60;83.80
55313;DHT22;46892;45.668;11.756;2023-04-29T05:41:35;12.50;82.80
55313;DHT22;46892;45.668;11.756;2023-04-29T05:44:01;12.60;82.80
55313;DHT22;46892;45.668;11.756;2023-04-29T05:46:26;12.70;82.40
55313;DHT22;46892;45.668;11.756;2023-04-29T05:48:52;12.80;82.40
55313;DHT22;46892;45.668;11.756;2023-04-29T05:51:18;12.80;82.00
55313;DHT22;46892;45.668;11.756;2023-04-29T05:53:43;12.80;80.80
55313;DHT22;46892;45.668;11.756;2023-04-29T05:56:09;12.80;81.40
55313;DHT22;46892;45.668;11.756;2023-04-29T05:58:35;13.00;81.50
55313;DHT22;46892;45.668;11.756;2023-04-29T06:01:01;13.20;80.80
55313;DHT22;46892;45.668;11.756;2023-04-29T06:03:27;13.30;79.60
55313;DHT22;46892;45.668;11.756;2023-04-29T06:05:53;13.40;79.70
55313;DHT22;46892;45.668;11.756;2023-04-29T06:08:19;13.50;79.30
55313;DHT22;46892;45.668;11.756;2023-04-29T06:10:45;13.50;77.90
55313;DHT22;46892;45.668;11.756;2023-04-29T06:13:11;13.50;78.40
55313;DHT22;46892;45.668;11.756;2023-04-29T06:15:36;13.50;77.30
55313;DHT22;46892;45.668;11.756;2023-04-29T06:18:02;13.50;77.60
55313;DHT22;46892;45.668;11.756;2023-04-29T06:20:28;13.50;77.50
55313;DHT22;46892;45.668;11.756;2023-04-29T06:22:54;13.60;77.80
55313;DHT22;46892;45.668;11.756;2023-04-29T06:25:19;13.60;78.20
55313;DHT22;46892;45.668;11.756;2023-04-29T06:27:45;13.60;78.20
55313;DHT22;46892;45.668;11.756;2023-04-29T06:30:11;13.60;77.90
55313;DHT22;46892;45.668;11.756;2023-04-29T06:32:40;13.70;77.60
55313;DHT22;46892;45.668;11.756;2023-04-29T06:35:06;13.80;77.80
55313;DHT22;46892;45.668;11.756;2023-04-29T06:37:32;13.80;78.40
55313;DHT22;46892;45.668;11.756;2023-04-29T06:39:58;13.80;79.30
55313;DHT22;46892;45.668;11.756;2023-04-29T06:42:24;13.80;79.10
55313;DHT22;46892;45.668;11.756;2023-04-29T06:44:50;13.90;79.00
55313;DHT22;46892;45.668;11.756;2023-04-29T06:47:15;13.90;78.80
55313;DHT22;46892;45.668;11.756;2023-04-29T06:49:41;14.00;78.60
55313;DHT22;46892;45.668;11.756;2023-04-29T06:52:08;14.10;77.80
55313;DHT22;46892;45.668;11.756;2023-04-29T06:54:34;14.30;76.00
55313;DHT22;46892;45.668;11.756;2023-04-29T06:57:00;14.30;75.50
55313;DHT22;46892;45.668;11.756;2023-04-29T06:59:26;14.30;75.50
55313;DHT22;46892;45.668;11.756;2023-04-29T07:01:52;14.30;75.70
55313;DHT22;46892;45.668;11.756;2023-04-29T07:04:17;14.30;73.70
55313;DHT22;46892;45.668;11.756;2023-04-29T07:06:43;14.40;74.40
55313;DHT22;46892;45.668;11.756;2023-04-29T07:09:11;14.60;74.90
55313;DHT22;46892;45.668;11.756;2023-04-29T07:11:38;14.80;73.80
55313;DHT22;46892;45.668;11.756;2023-04-29T07:14:04;15.00;73.80
55313;DHT22;46892;45.668;11.756;2023-04-29T07:16:30;15.30;72.20
55313;DHT22;46892;45.668;11.756;2023-04-29T07:18:55;15.70;69.40
55313;DHT22;46892;45.668;11.756;2023-04-29T07:21:21;16.00;67.50
55313;DHT22;46892;45.668;11.756;2023-04-29T07:23:47;16.30;65.90
55313;DHT22;46892;45.668;11.756;2023-04-29T07:26:14;16.50;65.20
55313;DHT22;46892;45.668;11.756;2023-04-29T07:28:40;16.70;65.40
55313;DHT22;46892;45.668;11.756;2023-04-29T07:31:06;16.70;67.90
55313;DHT22;46892;45.668;11.756;2023-04-29T07:33:33;16.70;68.50
55313;DHT22;46892;45.668;11.756;2023-04-29T07:35:59;16.70;68.00
55313;DHT22;46892;45.668;11.756;2023-04-29T07:38:25;16.70;65.60
55313;DHT22;46892;45.668;11.756;2023-04-29T07:40:50;16.80;65.40
55313;DHT22;46892;45.668;11.756;2023-04-29T07:43:16;17.10;66.30
55313;DHT22;46892;45.668;11.756;2023-04-29T07:45:42;17.30;65.60
55313;DHT22;46892;45.668;11.756;2023-04-29T07:48:08;17.40;64.20
55313;DHT22;46892;45.668;11.756;2023-04-29T07:50:34;17.50;63.80
55313;DHT22;46892;45.668;11.756;2023-04-29T07:53:01;17.50;59.30
55313;DHT22;46892;45.668;11.756;2023-04-29T07:55:28;17.40;60.00
55313;DHT22;46892;45.668;11.756;2023-04-29T07:57:55;17.30;59.60
55313;DHT22;46892;45.668;11.756;2023-04-29T08:00:22;17.10;61.20
55313;DHT22;46892;45.668;11.756;2023-04-29T08:02:54;17.10;64.30
55313;DHT22;46892;45.668;11.756;2023-04-29T08:05:21;17.10;63.80
55313;DHT22;46892;45.668;11.756;2023-04-29T08:07:48;17.20;65.30
55313;DHT22;46892;45.668;11.756;2023-04-29T08:10:14;17.30;64.30
55313;DHT22;46892;45.668;11.756;2023-04-29T08:12:40;17.30;63.60
55313;DHT22;46892;45.668;11.756;2023-04-29T08:15:06;17.30;65.10
55313;DHT22;46892;45.668;11.756;2023-04-29T08:17:32;17.30;62.10
55313;DHT22;46892;45.668;11.756;2023-04-29T08:19:57;17.30;61.90
55313;DHT22;46892;45.668;11.756;2023-04-29T08:22:23;17.20;64.40
55313;DHT22;46892;45.668;11.756;2023-04-29T08:24:49;17.20;64.00
55313;DHT22;46892;45.668;11.756;2023-04-29T08:27:14;17.00;63.00
55313;DHT22;46892;45.668;11.756;2023-04-29T08:29:41;17.00;63.50
55313;DHT22;46892;45.668;11.756;2023-04-29T08:32:07;16.90;62.10
55313;DHT22;46892;45.668;11.756;2023-04-29T08:34:33;16.80;63.10
55313;DHT22;46892;45.668;11.756;2023-04-29T08:37:01;17.00;64.90
55313;DHT22;46892;45.668;11.756;2023-04-29T08:39:29;17.00;63.40
55313;DHT22;46892;45.668;11.756;2023-04-29T08:41:59;17.20;64.50
55313;DHT22;46892;45.668;11.756;2023-04-29T08:44:31;17.40;65.10
55313;DHT22;46892;45.668;11.756;2023-04-29T08:46:59;17.50;60.90
55313;DHT22;46892;45.668;11.756;2023-04-29T08:49:29;17.50;62.90
55313;DHT22;46892;45.668;11.756;2023-04-29T08:51:56;17.50;62.10
55313;DHT22;46892;45.668;11.756;2023-04-29T08:54:22;17.30;59.70
55313;DHT22;46892;45.668;11.756;2023-04-29T08:56:49;17.20;61.00
55313;DHT22;46892;45.668;11.756;2023-04-29T08:59:17;17.30;63.80
55313;DHT22;46892;45.668;11.756;2023-04-29T09:01:43;17.20;60.30
55313;DHT22;46892;45.668;11.756;2023-04-29T09:07:02;16.90;60.30
55313;DHT22;46892;45.668;11.756;2023-04-29T09:09:28;17.00;59.20
55313;DHT22;46892;45.668;11.756;2023-04-29T09:11:54;17.00;61.80
55313;DHT22;46892;45.668;11.756;2023-04-29T09:14:21;17.20;62.70
55313;DHT22;46892;45.668;11.756;2023-04-29T09:16:47;17.30;63.90
55313;DHT22;46892;45.668;11.756;2023-04-29T09:19:35;17.40;63.50
55313;DHT22;46892;45.668;11.756;2023-04-29T09:22:04;17.70;63.10
55313;DHT22;46892;45.668;11.756;2023-04-29T09:24:32;17.80;60.20
55313;DHT22;46892;45.668;11.756;2023-04-29T09:26:58;17.80;60.10
55313;DHT22;46892;45.668;11.756;2023-04-29T09:29:24;17.80;57.00
55313;DHT22;46892;45.668;11.756;2023-04-29T09:31:50;17.70;57.20
55313;DHT22;46892;45.668;11.756;2023-04-29T09:34:30;17.70;57.40
55313;DHT22;46892;45.668;11.756;2023-04-29T09:36:56;17.70;59.70
55313;DHT22;46892;45.668;11.756;2023-04-29T09:39:24;17.80;59.50
55313;DHT22;46892;45.668;11.756;2023-04-29T09:44:25;18.10;61.10
55313;DHT22;46892;45.668;11.756;2023-04-29T09:49:37;18.20;56.50
55313;DHT22;46892;45.668;11.756;2023-04-29T09:52:09;18.20;53.30
55313;DHT22;46892;45.668;11.756;2023-04-29T09:54:35;18.00;55.20
55313;DHT22;46892;45.668;11.756;2023-04-29T09:57:02;18.00;54.50
55313;DHT22;46892;45.668;11.756;2023-04-29T09:59:31;18.10;55.50
55313;DHT22;46892;45.668;11.756;2023-04-29T10:02:01;18.30;58.40
55313;DHT22;46892;45.668;11.756;2023-04-29T10:04:30;18.30;58.80
55313;DHT22;46892;45.668;11.756;2023-04-29T10:06:58;18.30;55.10
55313;DHT22;46892;45.668;11.756;2023-04-29T10:09:25;18.20;54.30
55313;DHT22;46892;45.668;11.756;2023-04-29T10:11:52;18.20;55.10
55313;DHT22;46892;45.668;11.756;2023-04-29T10:14:22;18.00;55.30
55313;DHT22;46892;45.668;11.756;2023-04-29T10:17:12;18.00;56.60
55313;DHT22;46892;45.668;11.756;2023-04-29T10:19:52;17.90;57.20
55313;DHT22;46892;45.668;11.756;2023-04-29T10:22:28;17.90;55.70
55313;DHT22;46892;45.668;11.756;2023-04-29T10:24:56;18.10;56.10
55313;DHT22;46892;45.668;11.756;2023-04-29T10:27:23;18.20;56.90
55313;DHT22;46892;45.668;11.756;2023-04-29T10:29:50;18.30;56.90
55313;DHT22;46892;45.668;11.756;2023-04-29T10:32:18;18.30;54.30
55313;DHT22;46892;45.668;11.756;2023-04-29T10:34:46;18.40;57.30
55313;DHT22;46892;45.668;11.756;2023-04-29T10:37:13;18.50;57.20
55313;DHT22;46892;45.668;11.756;2023-04-29T10:42:36;18.30;54.20
55313;DHT22;46892;45.668;11.756;2023-04-29T10:45:24;18.30;53.90
55313;DHT22;46892;45.668;11.756;2023-04-29T10:53:13;18.20;55.40
55313;DHT22;46892;45.668;11.756;2023-04-29T10:55:40;18.30;54.10
55313;DHT22;46892;45.668;11.756;2023-04-29T11:01:00;18.60;57.50
55313;DHT22;46892;45.668;11.756;2023-04-29T11:06:16;18.80;52.80
55313;DHT22;46892;45.668;11.756;2023-04-29T11:08:42;18.70;53.60
55313;DHT22;46892;45.668;11.756;2023-04-29T11:11:08;18.70;53.00
55313;DHT22;46892;45.668;11.756;2023-04-29T11:13:38;18.60;53.80
55313;DHT22;46892;45.668;11.756;2023-04-29T11:16:08;18.50;55.20
55313;DHT22;46892;45.668;11.756;2023-04-29T11:18:35;18.70;58.00
55313;DHT22;46892;45.668;11.756;2023-04-29T11:23:36;18.90;52.90
55313;DHT22;46892;45.668;11.756;2023-04-29T11:26:02;18.90;54.80
55313;DHT22;46892;45.668;11.756;2023-04-29T11:28:32;18.90;53.30
55313;DHT22;46892;45.668;11.756;2023-04-29T11:30:58;18.90;52.20
55313;DHT22;46892;45.668;11.756;2023-04-29T11:33:24;18.80;52.80
55313;DHT22;46892;45.668;11.756;2023-04-29T11:35:55;18.80;52.50
55313;DHT22;46892;45.668;11.756;2023-04-29T11:38:27;18.70;53.00
55313;DHT22;46892;45.668;11.756;2023-04-29T11:40:54;18.80;54.10
55313;DHT22;46892;45.668;11.756;2023-04-29T11:43:22;18.80;54.40
55313;DHT22;46892;45.668;11.756;2023-04-29T11:45:48;18.80;54.80
55313;DHT22;46892;45.668;11.756;2023-04-29T11:48:24;18.80;54.00
55313;DHT22;46892;45.668;11.756;2023-04-29T11:50:52;18.90;54.60
55313;DHT22;46892;45.668;11.756;2023-04-29T11:53:20;19.20;56.00
55313;DHT22;46892;45.668;11.756;2023-04-29T11:55:46;19.20;53.80
55313;DHT22;46892;45.668;11.756;2023-04-29T11:58:15;19.30;56.90
55313;DHT22;46892;45.668;11.756;2023-04-29T12:00:41;19.30;56.20
55313;DHT22;46892;45.668;11.756;2023-04-29T12:03:16;19.40;56.10
55313;DHT22;46892;45.668;11.756;2023-04-29T12:05:52;19.40;52.40
55313;DHT22;46892;45.668;11.756;2023-04-29T12:08:22;19.40;54.30
55313;DHT22;46892;45.668;11.756;2023-04-29T12:10:49;19.50;58.80
55313;DHT22;46892;45.668;11.756;2023-04-29T12:13:19;19.60;58.10
55313;DHT22;46892;45.668;11.756;2023-04-29T12:15:45;19.60;54.00
55313;DHT22;46892;45.668;11.756;2023-04-29T12:18:13;19.60;53.50
55313;DHT22;46892;45.668;11.756;2023-04-29T12:20:39;19.60;54.70
55313;DHT22;46892;45.668;11.756;2023-04-29T12:23:20;19.60;53.10
55313;DHT22;46892;45.668;11.756;2023-04-29T12:25:56;19.60;52.40
55313;DHT22;46892;45.668;11.756;2023-04-29T12:28:23;19.70;56.00
55313;DHT22;46892;45.668;11.756;2023-04-29T12:30:53;19.70;54.90
55313;DHT22;46892;45.668;11.756;2023-04-29T12:33:24;19.90;55.00
55313;DHT22;46892;45.668;11.756;2023-04-29T12:35:52;19.90;55.70
55313;DHT22;46892;45.668;11.756;2023-04-29T12:38:20;19.80;54.10
55313;DHT22;46892;45.668;11.756;2023-04-29T12:40:46;19.70;54.30
55313;DHT22;46892;45.668;11.756;2023-04-29T12:43:12;19.80;57.50
55313;DHT22;46892;45.668;11.756;2023-04-29T12:45:38;19.80;54.40
55313;DHT22;46892;45.668;11.756;2023-04-29T12:48:04;19.80;57.70
55313;DHT22;46892;45.668;11.756;2023-04-29T12:50:37;19.90;58.70
55313;DHT22;46892;45.668;11.756;2023-04-29T12:53:04;20.00;56.30
55313;DHT22;46892;45.668;11.756;2023-04-29T12:55:35;20.00;55.80
55313;DHT22;46892;45.668;11.756;2023-04-29T12:58:02;20.20;55.30
55313;DHT22;46892;45.668;11.756;2023-04-29T13:00:28;20.10;57.00
55313;DHT22;46892;45.668;11.756;2023-04-29T13:02:54;20.10;58.50
55313;DHT22;46892;45.668;11.756;2023-04-29T13:05:20;20.20;58.20
55313;DHT22;46892;45.668;11.756;2023-04-29T13:07:47;20.20;57.00
55313;DHT22;46892;45.668;11.756;2023-04-29T13:10:13;20.20;56.40
55313;DHT22;46892;45.668;11.756;2023-04-29T13:12:39;20.30;57.10
55313;DHT22;46892;45.668;11.756;2023-04-29T13:15:06;20.40;57.40
55313;DHT22;46892;45.668;11.756;2023-04-29T13:17:34;20.50;58.30
55313;DHT22;46892;45.668;11.756;2023-04-29T13:20:02;20.60;56.60
55313;DHT22;46892;45.668;11.756;2023-04-29T13:22:27;20.70;57.00
55313;DHT22;46892;45.668;11.756;2023-04-29T13:24:53;20.70;56.00
55313;DHT22;46892;45.668;11.756;2023-04-29T13:27:19;20.70;56.40
55313;DHT22;46892;45.668;11.756;2023-04-29T13:29:45;20.80;58.80
55313;DHT22;46892;45.668;11.756;2023-04-29T13:32:11;20.90;57.80
55313;DHT22;46892;45.668;11.756;2023-04-29T13:34:36;20.90;55.90
55313;DHT22;46892;45.668;11.756;2023-04-29T13:37:02;21.00;56.80
55313;DHT22;46892;45.668;11.756;2023-04-29T13:39:28;21.00;55.40
55313;DHT22;46892;45.668;11.756;2023-04-29T13:41:53;21.00;55.90
55313;DHT22;46892;45.668;11.756;2023-04-29T13:44:19;20.90;56.90
55313;DHT22;46892;45.668;11.756;2023-04-29T13:46:45;20.90;59.40
55313;DHT22;46892;45.668;11.756;2023-04-29T13:49:10;20.90;56.80
55313;DHT22;46892;45.668;11.756;2023-04-29T13:51:36;20.90;58.70
55313;DHT22;46892;45.668;11.756;2023-04-29T13:54:02;20.80;53.20
55313;DHT22;46892;45.668;11.756;2023-04-29T13:56:28;20.80;55.80
55313;DHT22;46892;45.668;11.756;2023-04-29T13:58:54;20.70;55.80
55313;DHT22;46892;45.668;11.756;2023-04-29T14:01:19;20.70;58.00
55313;DHT22;46892;45.668;11.756;2023-04-29T14:03:46;20.70;57.60
55313;DHT22;46892;45.668;11.756;2023-04-29T14:06:12;20.70;58.20
55313;DHT22;46892;45.668;11.756;2023-04-29T14:08:38;20.80;59.80
55313;DHT22;46892;45.668;11.756;2023-04-29T14:11:03;20.80;58.20
55313;DHT22;46892;45.668;11.756;2023-04-29T14:13:29;20.90;58.40
55313;DHT22;46892;45.668;11.756;2023-04-29T14:15:55;20.90;57.70
55313;DHT22;46892;45.668;11.756;2023-04-29T14:18:21;20.80;56.00
55313;DHT22;46892;45.668;11.756;2023-04-29T14:20:47;20.90;57.30
55313;DHT22;46892;45.668;11.756;2023-04-29T14:23:12;20.90;57.60
55313;DHT22;46892;45.668;11.756;2023-04-29T14:25:38;20.90;57.30
55313;DHT22;46892;45.668;11.756;2023-04-29T14:28:04;20.80;54.00
55313;DHT22;46892;45.668;11.756;2023-04-29T14:30:29;20.70;54.70
55313;DHT22;46892;45.668;11.756;2023-04-29T14:32:55;20.60;57.00
55313;DHT22;46892;45.668;11.756;2023-04-29T14:35:22;20.60;56.70
55313;DHT22;46892;45.668;11.756;2023-04-29T14:37:47;20.60;56.50
55313;DHT22;46892;45.668;11.756;2023-04-29T14:40:14;20.50;55.00
55313;DHT22;46892;45.668;11.756;2023-04-29T14:42:40;20.50;54.50
55313;DHT22;46892;45.668;11.756;2023-04-29T14:45:06;20.50;56.30
55313;DHT22;46892;45.668;11.756;2023-04-29T14:47:32;20.40;56.10
55313;DHT22;46892;45.668;11.756;2023-04-29T14:49:58;20.40;56.00
55313;DHT22;46892;45.668;11.756;2023-04-29T14:52:24;20.40;55.50
55313;DHT22;46892;45.668;11.756;2023-04-29T14:54:49;20.50;59.00
55313;DHT22;46892;45.668;11.756;2023-04-29T14:57:15;20.50;60.50
55313;DHT22;46892;45.668;11.756;2023-04-29T14:59:41;20.50;58.50
55313;DHT22;46892;45.668;11.756;2023-04-29T15:02:06;20.60;59.80
55313;DHT22;46892;45.668;11.756;2023-04-29T15:04:33;20.60;60.10
55313;DHT22;46892;45.668;11.756;2023-04-29T15:06:58;20.70;59.30
55313;DHT22;46892;45.668;11.756;2023-04-29T15:09:24;20.60;56.40
55313;DHT22;46892;45.668;11.756;2023-04-29T15:11:51;20.70;59.90
55313;DHT22;46892;45.668;11.756;2023-04-29T15:14:17;20.70;59.70
55313;DHT22;46892;45.668;11.756;2023-04-29T15:16:42;20.70;58.70
55313;DHT22;46892;45.668;11.756;2023-04-29T15:19:08;20.70;55.80
55313;DHT22;46892;45.668;11.756;2023-04-29T15:21:34;20.70;58.00
55313;DHT22;46892;45.668;11.756;2023-04-29T15:24:00;20.60;58.50
55313;DHT22;46892;45.668;11.756;2023-04-29T15:26:26;20.60;59.40
55313;DHT22;46892;45.668;11.756;2023-04-29T15:28:52;20.50;60.50
55313;DHT22;46892;45.668;11.756;2023-04-29T15:31:18;20.50;60.70
55313;DHT22;46892;45.668;11.756;2023-04-29T15:33:44;20.40;60.40
55313;DHT22;46892;45.668;11.756;2023-04-29T15:36:09;20.30;60.40
55313;DHT22;46892;45.668;11.756;2023-04-29T15:38:35;20.30;60.40
55313;DHT22;46892;45.668;11.756;2023-04-29T15:41:01;20.30;60.80
55313;DHT22;46892;45.668;11.756;2023-04-29T15:43:28;20.30;58.30
55313;DHT22;46892;45.668;11.756;2023-04-29T15:45:54;20.30;61.60
55313;DHT22;46892;45.668;11.756;2023-04-29T15:48:20;20.20;60.20